sensor_id;sensor_type;location;lat;lon;timestamp;pressure;altitude;pressure_sealevel;temperature;humidity
44920;BME280;30655;53.094;6.072;2022-12-20T00:01:58;101237.72;;;9.80;100.00
44920;BME280;30655;53.094;6.072;2022-12-20T00:04:28;101076.25;;;8.58;100.00
44920;BME280;30655;53.094;6.072;2022-12-20T00:06:55;101246.00;;;9.73;100.00
44920;BME280;30655;53.094;6.072;2022-12-20T00:09:22;101196.91;;;9.49;100.00
44920;BME280;30655;53.094;6.072;2022-12-20T00:11:54;101147.78;;;9.04;100.00
44920;BME280;30655;53.094;6.072;2022-12-20T00:14:21;101031.88;;;8.44;100.00
44920;BME280;30655;53.094;6.072;2022-12-20T00:16:49;101141.44;;;9.15;100.00
44920;BME280;30655;53.094;6.072;2022-12-20T00:19:17;101171.66;;;9.39;100.00
44920;BME280;30655;53.094;6.072;2022-12-20T00:21:44;101063.75;;;8.69;100.00
44920;BME280;30655;53.094;6.072;2022-12-20T00:24:11;101036.84;;;8.52;100.00
44920;BME280;30655;53.094;6.072;2022-12-20T00:26:39;101181.47;;;9.45;100.00
44920;BME280;30655;53.094;6.072;2022-12-20T00:29:12;101190.63;;;9.44;100.00
44920;BME280;30655;53.094;6.072;2022-12-20T00:31:47;101151.38;;;9.31;100.00
44920;BME280;30655;53.094;6.072;2022-12-20T00:34:25;101238.50;;;9.75;100.00
44920;BME280;30655;53.094;6.072;2022-12-20T00:36:54;101038.13;;;8.66;100.00
44920;BME280;30655;53.094;6.072;2022-12-20T00:39:23;101177.81;;;9.56;100.00
44920;BME280;30655;53.094;6.072;2022-12-20T00:41:51;101140.31;;;9.33;100.00
44920;BME280;30655;53.094;6.072;2022-12-20T00:44:17;101035.91;;;8.63;100.00
44920;BME280;30655;53.094;6.072;2022-12-20T00:46:44;101016.69;;;8.54;100.00
44920;BME280;30655;53.094;6.072;2022-12-20T00:49:11;101080.13;;;9.05;100.00
44920;BME280;30655;53.094;6.072;2022-12-20T00:51:46;101105.31;;;9.16;100.00
44920;BME280;30655;53.094;6.072;2022-12-20T00:54:20;101105.81;;;9.13;100.00
44920;BME280;30655;53.094;6.072;2022-12-20T00:56:47;101098.53;;;9.14;100.00
44920;BME280;30655;53.094;6.072;2022-12-20T00:59:15;101021.22;;;8.71;100.00
44920;BME280;30655;53.094;6.072;2022-12-20T01:01:43;101110.03;;;9.26;100.00
44920;BME280;30655;53.094;6.072;2022-12-20T01:04:10;101201.63;;;9.86;100.00
44920;BME280;30655;53.094;6.072;2022-12-20T01:06:39;101087.19;;;9.12;100.00
44920;BME280;30655;53.094;6.072;2022-12-20T01:09:12;101175.59;;;9.75;100.00
44920;BME280;30655;53.094;6.072;2022-12-20T01:11:40;101185.09;;;9.82;100.00
44920;BME280;30655;53.094;6.072;2022-12-20T01:14:10;101147.09;;;9.62;100.00
44920;BME280;30655;53.094;6.072;2022-12-20T01:16:39;100998.19;;;8.63;100.00
44920;BME280;30655;53.094;6.072;2022-12-20T01:19:09;101166.16;;;9.77;100.00
44920;BME280;30655;53.094;6.072;2022-12-20T01:21:38;101022.63;;;8.78;100.00
44920;BME280;30655;53.094;6.072;2022-12-20T01:24:06;101154.19;;;9.68;100.00
44920;BME280;30655;53.094;6.072;2022-12-20T01:26:34;101106.16;;;9.43;100.00
44920;BME280;30655;53.094;6.072;2022-12-20T01:29:08;100995.91;;;8.77;99.64
44920;BME280;30655;53.094;6.072;2022-12-20T01:31:37;101103.59;;;9.32;99.72
44920;BME280;30655;53.094;6.072;2022-12-20T01:34:06;101007.28;;;8.79;99.38
44920;BME280;30655;53.094;6.072;2022-12-20T01:36:37;101034.88;;;8.86;99.33
44920;BME280;30655;53.094;6.072;2022-12-20T01:39:13;101074.91;;;9.21;98.93
44920;BME280;30655;53.094;6.072;2022-12-20T01:41:44;101119.91;;;9.42;99.23
44920;BME280;30655;53.094;6.072;2022-12-20T01:44:54;101179.81;;;9.92;99.14
44920;BME280;30655;53.094;6.072;2022-12-20T01:47:23;101186.28;;;9.91;99.39
44920;BME280;30655;53.094;6.072;2022-12-20T01:49:52;101178.16;;;9.91;99.21
44920;BME280;30655;53.094;6.072;2022-12-20T01:52:25;101165.13;;;9.83;98.82
44920;BME280;30655;53.094;6.072;2022-12-20T01:54:59;101010.78;;;8.79;99.19
44920;BME280;30655;53.094;6.072;2022-12-20T01:57:36;101198.16;;;9.90;99.42
44920;BME280;30655;53.094;6.072;2022-12-20T02:00:09;101092.31;;;9.35;99.29
44920;BME280;30655;53.094;6.072;2022-12-20T02:02:41;100958.28;;;8.60;98.99
44920;BME280;30655;53.094;6.072;2022-12-20T02:05:10;101012.53;;;8.90;99.06
44920;BME280;30655;53.094;6.072;2022-12-20T02:07:42;100984.66;;;8.80;98.70
44920;BME280;30655;53.094;6.072;2022-12-20T02:10:10;101114.13;;;9.55;98.88
44920;BME280;30655;53.094;6.072;2022-12-20T02:12:44;101034.88;;;9.13;98.69
44920;BME280;30655;53.094;6.072;2022-12-20T02:15:31;101162.31;;;9.95;98.67
44920;BME280;30655;53.094;6.072;2022-12-20T02:18:14;100961.09;;;8.70;98.62
44920;BME280;30655;53.094;6.072;2022-12-20T02:21:07;101037.69;;;9.23;98.87
44920;BME280;30655;53.094;6.072;2022-12-20T02:26:58;100987.97;;;8.87;99.08
44920;BME280;30655;53.094;6.072;2022-12-20T02:29:32;101070.94;;;9.55;99.34
44920;BME280;30655;53.094;6.072;2022-12-20T02:32:07;101120.88;;;9.84;99.57
44920;BME280;30655;53.094;6.072;2022-12-20T02:34:42;101141.72;;;9.89;100.00
44920;BME280;30655;53.094;6.072;2022-12-20T02:37:13;100941.19;;;8.71;100.00
44920;BME280;30655;53.094;6.072;2022-12-20T02:39:45;101012.72;;;9.05;100.00
44920;BME280;30655;53.094;6.072;2022-12-20T02:42:14;101055.56;;;9.29;100.00
44920;BME280;30655;53.094;6.072;2022-12-20T02:44:47;100963.84;;;8.75;100.00
44920;BME280;30655;53.094;6.072;2022-12-20T02:47:25;101135.19;;;9.85;100.00
44920;BME280;30655;53.094;6.072;2022-12-20T02:49:53;101068.44;;;9.48;100.00
44920;BME280;30655;53.094;6.072;2022-12-20T02:52:23;100997.06;;;9.07;100.00
44920;BME280;30655;53.094;6.072;2022-12-20T02:54:53;101023.03;;;9.14;100.00
44920;BME280;30655;53.094;6.072;2022-12-20T02:57:25;101120.31;;;9.82;100.00
44920;BME280;30655;53.094;6.072;2022-12-20T02:59:57;101014.94;;;9.14;100.00
44920;BME280;30655;53.094;6.072;2022-12-20T03:02:31;101125.22;;;9.85;100.00
44920;BME280;30655;53.094;6.072;2022-12-20T03:04:59;101062.13;;;9.38;100.00
44920;BME280;30655;53.094;6.072;2022-12-20T03:07:30;100981.38;;;8.99;100.00
44920;BME280;30655;53.094;6.072;2022-12-20T03:09:59;101064.47;;;9.56;100.00
44920;BME280;30655;53.094;6.072;2022-12-20T03:12:28;100996.03;;;9.08;100.00
44920;BME280;30655;53.094;6.072;2022-12-20T03:14:59;100931.66;;;8.63;100.00
44920;BME280;30655;53.094;6.072;2022-12-20T03:17:32;100931.53;;;8.75;100.00
44920;BME280;30655;53.094;6.072;2022-12-20T03:20:05;101034.50;;;9.26;100.00
44920;BME280;30655;53.094;6.072;2022-12-20T03:22:45;100995.19;;;9.08;100.00
44920;BME280;30655;53.094;6.072;2022-12-20T03:25:21;100934.22;;;8.75;100.00
44920;BME280;30655;53.094;6.072;2022-12-20T03:27:48;100999.28;;;9.11;100.00
44920;BME280;30655;53.094;6.072;2022-12-20T03:30:17;101028.59;;;9.29;100.00
44920;BME280;30655;53.094;6.072;2022-12-20T03:33:03;101137.19;;;9.94;100.00
44920;BME280;30655;53.094;6.072;2022-12-20T03:35:40;101114.91;;;9.82;100.00
44920;BME280;30655;53.094;6.072;2022-12-20T03:38:08;101062.22;;;9.48;100.00
44920;BME280;30655;53.094;6.072;2022-12-20T03:40:40;100957.19;;;8.83;100.00
44920;BME280;30655;53.094;6.072;2022-12-20T03:43:07;101100.25;;;9.73;100.00
44920;BME280;30655;53.094;6.072;2022-12-20T03:45:36;101103.81;;;9.79;100.00
44920;BME280;30655;53.094;6.072;2022-12-20T03:48:06;101086.38;;;9.60;100.00
44920;BME280;30655;53.094;6.072;2022-12-20T03:50:42;100974.28;;;8.93;100.00
44920;BME280;30655;53.094;6.072;2022-12-20T03:53:16;101003.88;;;9.10;100.00
44920;BME280;30655;53.094;6.072;2022-12-20T03:55:45;101127.16;;;9.90;100.00
44920;BME280;30655;53.094;6.072;2022-12-20T03:58:15;101117.63;;;9.82;100.00
44920;BME280;30655;53.094;6.072;2022-12-20T04:00:50;101053.84;;;9.44;100.00
44920;BME280;30655;53.094;6.072;2022-12-20T04:03:20;100978.00;;;8.87;100.00
44920;BME280;30655;53.094;6.072;2022-12-20T04:05:49;101086.06;;;9.56;100.00
44920;BME280;30655;53.094;6.072;2022-12-20T04:08:16;100994.97;;;9.10;100.00
44920;BME280;30655;53.094;6.072;2022-12-20T04:10:46;101055.25;;;9.52;100.00
44920;BME280;30655;53.094;6.072;2022-12-20T04:13:13;100902.19;;;8.57;100.00
44920;BME280;30655;53.094;6.072;2022-12-20T04:15:41;100925.56;;;8.73;100.00
44920;BME280;30655;53.094;6.072;2022-12-20T04:18:10;100922.03;;;8.73;100.00
44920;BME280;30655;53.094;6.072;2022-12-20T04:20:43;100954.81;;;8.86;100.00
44920;BME280;30655;53.094;6.072;2022-12-20T04:23:13;100928.56;;;8.77;100.00
44920;BME280;30655;53.094;6.072;2022-12-20T04:25:42;100879.47;;;8.48;100.00
44920;BME280;30655;53.094;6.072;2022-12-20T04:28:09;101004.97;;;9.41;100.00
44920;BME280;30655;53.094;6.072;2022-12-20T04:30:38;101110.22;;;10.00;100.00
44920;BME280;30655;53.094;6.072;2022-12-20T04:33:05;100998.84;;;9.50;100.00
44920;BME280;30655;53.094;6.072;2022-12-20T04:35:33;100963.66;;;9.08;100.00
44920;BME280;30655;53.094;6.072;2022-12-20T04:38:04;100910.06;;;8.85;100.00
44920;BME280;30655;53.094;6.072;2022-12-20T04:40:34;100997.22;;;9.49;100.00
44920;BME280;30655;53.094;6.072;2022-12-20T04:43:03;101031.09;;;9.67;100.00
44920;BME280;30655;53.094;6.072;2022-12-20T04:45:35;100872.78;;;8.77;100.00
44920;BME280;30655;53.094;6.072;2022-12-20T04:48:05;100918.78;;;8.97;100.00
44920;BME280;30655;53.094;6.072;2022-12-20T04:50:52;100999.41;;;9.52;100.00
44920;BME280;30655;53.094;6.072;2022-12-20T04:53:23;101062.50;;;10.10;100.00
44920;BME280;30655;53.094;6.072;2022-12-20T04:55:56;101067.59;;;10.07;100.00
44920;BME280;30655;53.094;6.072;2022-12-20T04:58:23;100999.00;;;9.66;100.00
44920;BME280;30655;53.094;6.072;2022-12-20T05:00:50;100953.78;;;9.46;100.00
44920;BME280;30655;53.094;6.072;2022-12-20T05:03:17;101077.38;;;10.13;100.00
44920;BME280;30655;53.094;6.072;2022-12-20T05:05:46;101062.19;;;10.07;100.00
44920;BME280;30655;53.094;6.072;2022-12-20T05:08:16;100990.31;;;9.64;100.00
44920;BME280;30655;53.094;6.072;2022-12-20T05:10:49;100951.06;;;9.46;100.00
44920;BME280;30655;53.094;6.072;2022-12-20T05:13:20;100986.34;;;9.71;100.00
44920;BME280;30655;53.094;6.072;2022-12-20T05:15:53;100851.00;;;8.84;100.00
44920;BME280;30655;53.094;6.072;2022-12-20T05:18:23;101003.13;;;9.78;100.00
44920;BME280;30655;53.094;6.072;2022-12-20T05:20:59;101063.44;;;10.21;100.00
44920;BME280;30655;53.094;6.072;2022-12-20T05:23:29;100881.53;;;9.21;100.00
44920;BME280;30655;53.094;6.072;2022-12-20T05:26:09;100969.91;;;9.78;100.00
44920;BME280;30655;53.094;6.072;2022-12-20T05:28:37;100906.66;;;9.27;100.00
44920;BME280;30655;53.094;6.072;2022-12-20T05:31:06;100854.47;;;9.06;100.00
44920;BME280;30655;53.094;6.072;2022-12-20T05:33:33;100921.94;;;9.48;100.00
44920;BME280;30655;53.094;6.072;2022-12-20T05:36:00;100988.09;;;9.92;100.00
44920;BME280;30655;53.094;6.072;2022-12-20T05:38:29;100997.31;;;9.97;100.00
44920;BME280;30655;53.094;6.072;2022-12-20T05:40:58;101040.72;;;10.22;100.00
44920;BME280;30655;53.094;6.072;2022-12-20T05:43:29;100820.09;;;8.91;100.00
44920;BME280;30655;53.094;6.072;2022-12-20T05:46:02;100961.03;;;9.82;100.00
44920;BME280;30655;53.094;6.072;2022-12-20T05:48:29;100990.03;;;9.97;100.00
44920;BME280;30655;53.094;6.072;2022-12-20T05:50:58;101022.38;;;10.24;100.00
44920;BME280;30655;53.094;6.072;2022-12-20T05:53:27;100953.22;;;9.81;100.00
44920;BME280;30655;53.094;6.072;2022-12-20T05:55:59;100875.72;;;9.34;100.00
44920;BME280;30655;53.094;6.072;2022-12-20T05:58:30;100845.91;;;9.19;100.00
44920;BME280;30655;53.094;6.072;2022-12-20T06:01:06;100905.84;;;9.63;100.00
44920;BME280;30655;53.094;6.072;2022-12-20T06:03:36;101022.97;;;10.31;100.00
44920;BME280;30655;53.094;6.072;2022-12-20T06:06:04;100844.50;;;9.12;100.00
44920;BME280;30655;53.094;6.072;2022-12-20T06:08:52;101005.00;;;10.15;100.00
44920;BME280;30655;53.094;6.072;2022-12-20T06:11:23;101021.13;;;10.42;100.00
44920;BME280;30655;53.094;6.072;2022-12-20T06:13:57;100933.28;;;9.92;100.00
44920;BME280;30655;53.094;6.072;2022-12-20T06:16:28;100863.06;;;9.40;100.00
44920;BME280;30655;53.094;6.072;2022-12-20T06:19:07;100992.88;;;10.17;100.00
44920;BME280;30655;53.094;6.072;2022-12-20T06:21:37;100962.94;;;10.19;100.00
44920;BME280;30655;53.094;6.072;2022-12-20T06:24:08;100863.19;;;9.55;100.00
44920;BME280;30655;53.094;6.072;2022-12-20T06:26:44;100862.53;;;9.43;100.00
44920;BME280;30655;53.094;6.072;2022-12-20T06:29:18;101025.19;;;10.44;100.00
44920;BME280;30655;53.094;6.072;2022-12-20T06:31:56;100848.81;;;9.44;100.00
44920;BME280;30655;53.094;6.072;2022-12-20T06:34:28;100992.94;;;10.27;100.00
44920;BME280;30655;53.094;6.072;2022-12-20T06:36:57;100986.50;;;10.33;100.00
44920;BME280;30655;53.094;6.072;2022-12-20T06:39:27;101023.09;;;10.56;100.00
44920;BME280;30655;53.094;6.072;2022-12-20T06:41:58;100974.31;;;10.26;100.00
44920;BME280;30655;53.094;6.072;2022-12-20T06:44:51;101017.13;;;10.49;100.00
44920;BME280;30655;53.094;6.072;2022-12-20T06:47:18;100856.94;;;9.49;100.00
44920;BME280;30655;53.094;6.072;2022-12-20T06:49:46;100901.69;;;9.87;100.00
44920;BME280;30655;53.094;6.072;2022-12-20T06:52:15;101011.50;;;10.56;100.00
44920;BME280;30655;53.094;6.072;2022-12-20T06:54:43;100784.97;;;9.18;100.00
44920;BME280;30655;53.094;6.072;2022-12-20T06:57:10;100929.34;;;10.10;100.00
44920;BME280;30655;53.094;6.072;2022-12-20T06:59:36;100846.94;;;9.50;100.00
44920;BME280;30655;53.094;6.072;2022-12-20T07:02:05;101002.50;;;10.45;100.00
44920;BME280;30655;53.094;6.072;2022-12-20T07:04:34;100921.16;;;9.94;100.00
44920;BME280;30655;53.094;6.072;2022-12-20T07:07:02;100833.44;;;9.45;100.00
44920;BME280;30655;53.094;6.072;2022-12-20T07:09:32;100974.53;;;10.19;100.00
44920;BME280;30655;53.094;6.072;2022-12-20T07:12:04;100831.72;;;9.34;100.00
44920;BME280;30655;53.094;6.072;2022-12-20T07:14:31;100816.56;;;9.28;100.00
44920;BME280;30655;53.094;6.072;2022-12-20T07:16:57;100899.44;;;9.74;100.00
44920;BME280;30655;53.094;6.072;2022-12-20T07:19:26;100794.63;;;9.09;100.00
44920;BME280;30655;53.094;6.072;2022-12-20T07:21:55;100941.44;;;10.02;100.00
44920;BME280;30655;53.094;6.072;2022-12-20T07:24:22;100930.38;;;9.99;100.00
44920;BME280;30655;53.094;6.072;2022-12-20T07:26:51;100825.50;;;9.28;100.00
44920;BME280;30655;53.094;6.072;2022-12-20T07:29:22;100828.53;;;9.42;100.00
44920;BME280;30655;53.094;6.072;2022-12-20T07:31:53;100885.41;;;9.72;100.00
44920;BME280;30655;53.094;6.072;2022-12-20T07:34:20;100904.63;;;9.81;100.00
44920;BME280;30655;53.094;6.072;2022-12-20T07:36:56;100967.81;;;10.27;100.00
44920;BME280;30655;53.094;6.072;2022-12-20T07:39:24;100917.06;;;9.87;100.00
44920;BME280;30655;53.094;6.072;2022-12-20T07:41:54;101017.16;;;10.59;100.00
44920;BME280;30655;53.094;6.072;2022-12-20T07:44:24;100964.81;;;10.18;100.00
44920;BME280;30655;53.094;6.072;2022-12-20T07:47:08;101012.81;;;10.53;100.00
44920;BME280;30655;53.094;6.072;2022-12-20T07:49:41;100829.59;;;9.36;100.00
44920;BME280;30655;53.094;6.072;2022-12-20T07:52:11;100820.94;;;9.34;100.00
44920;BME280;30655;53.094;6.072;2022-12-20T07:54:47;100900.34;;;9.85;100.00
44920;BME280;30655;53.094;6.072;2022-12-20T07:57:20;100859.63;;;9.49;100.00
44920;BME280;30655;53.094;6.072;2022-12-20T07:59:50;101014.69;;;10.53;100.00
44920;BME280;30655;53.094;6.072;2022-12-20T08:02:37;101016.34;;;10.59;100.00
44920;BME280;30655;53.094;6.072;2022-12-20T08:05:20;100991.13;;;10.38;100.00
44920;BME280;30655;53.094;6.072;2022-12-20T08:10:52;100938.50;;;10.04;100.00
44920;BME280;30655;53.094;6.072;2022-12-20T08:13:19;100831.25;;;9.47;100.00
44920;BME280;30655;53.094;6.072;2022-12-20T08:15:48;100810.22;;;9.44;100.00
44920;BME280;30655;53.094;6.072;2022-12-20T08:18:15;100900.69;;;10.04;100.00
44920;BME280;30655;53.094;6.072;2022-12-20T08:20:42;100884.16;;;9.90;100.00
44920;BME280;30655;53.094;6.072;2022-12-20T08:23:13;100931.63;;;10.28;100.00
44920;BME280;30655;53.094;6.072;2022-12-20T08:25:40;100949.97;;;10.21;100.00
44920;BME280;30655;53.094;6.072;2022-12-20T08:28:08;100971.72;;;10.56;100.00
44920;BME280;30655;53.094;6.072;2022-12-20T08:30:35;100796.66;;;9.34;100.00
44920;BME280;30655;53.094;6.072;2022-12-20T08:33:01;100987.97;;;10.61;100.00
44920;BME280;30655;53.094;6.072;2022-12-20T08:35:28;101004.78;;;10.73;100.00
44920;BME280;30655;53.094;6.072;2022-12-20T08:40:39;100947.13;;;10.48;100.00
44920;BME280;30655;53.094;6.072;2022-12-20T08:43:07;100914.06;;;10.25;100.00
44920;BME280;30655;53.094;6.072;2022-12-20T08:45:58;100829.50;;;9.68;100.00
44920;BME280;30655;53.094;6.072;2022-12-20T08:48:29;100989.91;;;10.76;100.00
44920;BME280;30655;53.094;6.072;2022-12-20T08:50:58;100973.97;;;10.69;100.00
44920;BME280;30655;53.094;6.072;2022-12-20T08:53:26;100987.50;;;10.74;100.00
44920;BME280;30655;53.094;6.072;2022-12-20T08:56:02;100906.28;;;10.39;100.00
44920;BME280;30655;53.094;6.072;2022-12-20T08:58:29;100804.72;;;9.76;100.00
44920;BME280;30655;53.094;6.072;2022-12-20T09:00:57;100897.31;;;10.28;100.00
44920;BME280;30655;53.094;6.072;2022-12-20T09:03:34;100921.47;;;10.50;100.00
44920;BME280;30655;53.094;6.072;2022-12-20T09:06:04;100976.16;;;10.83;100.00
44920;BME280;30655;53.094;6.072;2022-12-20T09:08:33;100972.63;;;10.82;100.00
44920;BME280;30655;53.094;6.072;2022-12-20T09:11:08;100773.66;;;9.68;100.00
44920;BME280;30655;53.094;6.072;2022-12-20T09:13:35;100794.19;;;9.74;100.00
44920;BME280;30655;53.094;6.072;2022-12-20T09:16:09;100969.44;;;10.90;100.00
44920;BME280;30655;53.094;6.072;2022-12-20T09:18:36;100961.84;;;10.87;100.00
44920;BME280;30655;53.094;6.072;2022-12-20T09:21:05;100975.94;;;10.94;100.00
44920;BME280;30655;53.094;6.072;2022-12-20T09:23:34;100977.84;;;10.99;100.00
44920;BME280;30655;53.094;6.072;2022-12-20T09:26:01;100947.75;;;10.75;100.00
44920;BME280;30655;53.094;6.072;2022-12-20T09:28:30;100895.25;;;10.46;100.00
44920;BME280;30655;53.094;6.072;2022-12-20T09:30:57;100973.25;;;10.99;100.00
44920;BME280;30655;53.094;6.072;2022-12-20T09:33:28;100934.78;;;10.77;100.00
44920;BME280;30655;53.094;6.072;2022-12-20T09:35:56;100969.72;;;10.99;100.00
44920;BME280;30655;53.094;6.072;2022-12-20T09:38:23;100978.38;;;11.01;100.00
44920;BME280;30655;53.094;6.072;2022-12-20T09:40:53;100947.53;;;10.97;100.00
44920;BME280;30655;53.094;6.072;2022-12-20T09:43:21;100981.63;;;11.08;100.00
44920;BME280;30655;53.094;6.072;2022-12-20T09:45:53;100936.44;;;10.88;100.00
44920;BME280;30655;53.094;6.072;2022-12-20T09:48:23;100962.69;;;11.08;100.00
44920;BME280;30655;53.094;6.072;2022-12-20T09:51:04;100860.63;;;10.43;100.00
44920;BME280;30655;53.094;6.072;2022-12-20T09:53:50;100864.41;;;10.42;100.00
44920;BME280;30655;53.094;6.072;2022-12-20T09:56:43;100790.47;;;9.90;100.00
44920;BME280;30655;53.094;6.072;2022-12-20T09:59:14;100981.38;;;11.04;100.00
44920;BME280;30655;53.094;6.072;2022-12-20T10:01:48;100981.09;;;11.01;100.00
44920;BME280;30655;53.094;6.072;2022-12-20T10:04:20;100864.09;;;10.28;100.00
44920;BME280;30655;53.094;6.072;2022-12-20T10:06:57;100925.53;;;10.63;100.00
44920;BME280;30655;53.094;6.072;2022-12-20T10:09:46;100789.66;;;9.85;100.00
44920;BME280;30655;53.094;6.072;2022-12-20T10:12:24;100784.50;;;9.83;100.00
44920;BME280;30655;53.094;6.072;2022-12-20T10:15:08;100967.00;;;10.99;100.00
44920;BME280;30655;53.094;6.072;2022-12-20T10:17:56;100957.50;;;10.86;100.00
44920;BME280;30655;53.094;6.072;2022-12-20T10:20:38;100908.50;;;10.57;100.00
44920;BME280;30655;53.094;6.072;2022-12-20T10:23:15;100918.84;;;10.75;100.00
44920;BME280;30655;53.094;6.072;2022-12-20T10:25:52;100902.59;;;10.65;100.00
44920;BME280;30655;53.094;6.072;2022-12-20T10:28:25;100845.19;;;10.28;100.00
44920;BME280;30655;53.094;6.072;2022-12-20T10:30:53;100869.00;;;10.51;100.00
44920;BME280;30655;53.094;6.072;2022-12-20T10:33:23;100792.66;;;9.93;100.00
44920;BME280;30655;53.094;6.072;2022-12-20T10:35:52;100853.06;;;10.34;100.00
44920;BME280;30655;53.094;6.072;2022-12-20T10:38:19;100873.38;;;10.57;100.00
44920;BME280;30655;53.094;6.072;2022-12-20T10:40:49;100960.81;;;11.08;100.00
44920;BME280;30655;53.094;6.072;2022-12-20T10:43:48;100965.66;;;11.06;100.00
44920;BME280;30655;53.094;6.072;2022-12-20T10:46:19;100952.44;;;11.10;100.00
44920;BME280;30655;53.094;6.072;2022-12-20T10:48:52;100903.16;;;10.83;100.00
44920;BME280;30655;53.094;6.072;2022-12-20T10:51:23;100768.88;;;9.90;100.00
44920;BME280;30655;53.094;6.072;2022-12-20T10:53:52;100836.56;;;10.26;100.00
44920;BME280;30655;53.094;6.072;2022-12-20T10:56:22;100833.84;;;10.26;100.00
44920;BME280;30655;53.094;6.072;2022-12-20T10:58:57;100854.41;;;10.42;100.00
44920;BME280;30655;53.094;6.072;2022-12-20T11:01:34;100941.88;;;11.03;100.00
44920;BME280;30655;53.094;6.072;2022-12-20T11:04:24;100786.69;;;9.97;100.00
44920;BME280;30655;53.094;6.072;2022-12-20T11:06:52;100939.97;;;10.99;100.00
44920;BME280;30655;53.094;6.072;2022-12-20T11:09:28;100787.50;;;9.92;100.00
44920;BME280;30655;53.094;6.072;2022-12-20T11:12:04;100945.38;;;10.99;100.00
44920;BME280;30655;53.094;6.072;2022-12-20T11:14:37;100834.38;;;10.28;100.00
44920;BME280;30655;53.094;6.072;2022-12-20T11:17:24;100945.91;;;10.96;100.00
44920;BME280;30655;53.094;6.072;2022-12-20T11:20:19;100926.97;;;10.81;100.00
44920;BME280;30655;53.094;6.072;2022-12-20T11:22:52;100876.06;;;10.52;100.00
44920;BME280;30655;53.094;6.072;2022-12-20T11:25:38;100914.50;;;10.79;100.00
44920;BME280;30655;53.094;6.072;2022-12-20T11:28:29;100795.63;;;10.02;100.00
44920;BME280;30655;53.094;6.072;2022-12-20T11:31:10;100903.91;;;10.63;100.00
44920;BME280;30655;53.094;6.072;2022-12-20T11:33:56;100946.97;;;10.90;100.00
44920;BME280;30655;53.094;6.072;2022-12-20T11:36:34;100952.94;;;10.97;100.00
44920;BME280;30655;53.094;6.072;2022-12-20T11:39:12;100829.22;;;10.26;100.00
44920;BME280;30655;53.094;6.072;2022-12-20T11:41:49;100767.25;;;9.84;100.00
44920;BME280;30655;53.094;6.072;2022-12-20T11:44:26;100810.53;;;10.15;100.00
44920;BME280;30655;53.094;6.072;2022-12-20T11:47:05;100942.66;;;10.94;100.00
44920;BME280;30655;53.094;6.072;2022-12-20T11:49:55;100906.09;;;10.71;100.00
44920;BME280;30655;53.094;6.072;2022-12-20T11:52:34;100917.47;;;10.78;100.00
44920;BME280;30655;53.094;6.072;2022-12-20T11:55:14;100929.38;;;10.82;100.00
44920;BME280;30655;53.094;6.072;2022-12-20T11:57:47;100931.03;;;10.93;100.00
44920;BME280;30655;53.094;6.072;2022-12-20T12:00:42;100932.41;;;10.96;100.00
44920;BME280;30655;53.094;6.072;2022-12-20T12:03:15;100924.28;;;10.96;100.00
44920;BME280;30655;53.094;6.072;2022-12-20T12:05:46;100904.25;;;10.87;100.00
44920;BME280;30655;53.094;6.072;2022-12-20T12:08:18;100908.56;;;10.83;100.00
44920;BME280;30655;53.094;6.072;2022-12-20T12:10:55;100927.50;;;10.88;100.00
44920;BME280;30655;53.094;6.072;2022-12-20T12:13:26;100913.69;;;10.79;100.00
44920;BME280;30655;53.094;6.072;2022-12-20T12:15:58;100925.34;;;10.85;100.00
44920;BME280;30655;53.094;6.072;2022-12-20T12:18:29;100923.44;;;10.85;100.00
44920;BME280;30655;53.094;6.072;2022-12-20T12:21:01;100893.94;;;10.68;100.00
44920;BME280;30655;53.094;6.072;2022-12-20T12:23:42;100912.63;;;10.85;100.00
44920;BME280;30655;53.094;6.072;2022-12-20T12:26:14;100932.09;;;10.87;100.00
44920;BME280;30655;53.094;6.072;2022-12-20T12:28:47;100937.78;;;10.81;100.00
44920;BME280;30655;53.094;6.072;2022-12-20T12:31:24;100926.16;;;10.80;100.00
44920;BME280;30655;53.094;6.072;2022-12-20T12:34:01;100915.03;;;10.82;100.00
44920;BME280;30655;53.094;6.072;2022-12-20T12:36:52;100908.00;;;10.70;100.00
44920;BME280;30655;53.094;6.072;2022-12-20T12:39:53;100893.09;;;10.58;100.00
44920;BME280;30655;53.094;6.072;2022-12-20T12:42:50;100937.47;;;10.77;100.00
44920;BME280;30655;53.094;6.072;2022-12-20T12:45:26;100908.03;;;10.75;100.00
44920;BME280;30655;53.094;6.072;2022-12-20T12:47:58;100920.44;;;10.82;100.00
44920;BME280;30655;53.094;6.072;2022-12-20T12:50:28;100895.81;;;10.68;100.00
44920;BME280;30655;53.094;6.072;2022-12-20T12:53:02;100888.28;;;10.70;100.00
44920;BME280;30655;53.094;6.072;2022-12-20T12:55:37;100914.53;;;10.90;100.00
44920;BME280;30655;53.094;6.072;2022-12-20T13:00:56;100891.81;;;10.75;100.00
44920;BME280;30655;53.094;6.072;2022-12-20T13:04:07;100907.75;;;10.92;100.00
44920;BME280;30655;53.094;6.072;2022-12-20T13:07:03;100893.97;;;10.84;100.00
44920;BME280;30655;53.094;6.072;2022-12-20T13:09:50;100908.56;;;10.93;100.00
44920;BME280;30655;53.094;6.072;2022-12-20T13:15:51;100903.44;;;10.91;100.00
44920;BME280;30655;53.094;6.072;2022-12-20T13:18:56;100803.56;;;10.19;100.00
44920;BME280;30655;53.094;6.072;2022-12-20T13:25:02;100850.09;;;10.56;100.00
44920;BME280;30655;53.094;6.072;2022-12-20T13:27:35;100828.22;;;10.53;100.00
44920;BME280;30655;53.094;6.072;2022-12-20T13:33:39;100912.91;;;10.94;100.00
44920;BME280;30655;53.094;6.072;2022-12-20T13:36:36;100712.94;;;9.66;100.00
44920;BME280;30655;53.094;6.072;2022-12-20T13:39:30;100908.84;;;10.96;100.00